Ruskin, Florida
Current Conditions -  °F | °C
As of 4:58 PM on Thursday 27 Nov 2014 (Local Time) from KMCF Reporting Station
Clear Clear  
Wind Chill: 62°   Ceiling: Unl
Heat Index: 62°   Visibility: 10mi
Dew Point: 37°   Wind: 13mph
Humidity: 41%   Direction: 360°N
Pressure: 30.22"   Gusts: 21mph
Location:  27.72°N, 82.43°W
Report Text: KMCF 272158Z AUTO 36011G18KT 10SM CLR 16/03 A3022 RMK AO2 SLP237 T01640030
Loading
Personal Weather Stations






























Interactive Weather Map New forecast layout! Learn more

10-Day Weather Forecast

Advertisements
Track Severe Weather on mobile